sensor_id;sensor_type;location;lat;lon;timestamp;P1;durP1;ratioP1;P2;durP2;ratioP2
42846;SDS011;28495;49.916;14.536;2023-02-28T00:00:11;9.48;;;5.32;;
42846;SDS011;28495;49.916;14.536;2023-02-28T00:05:49;6.75;;;5.18;;
42846;SDS011;28495;49.916;14.536;2023-02-28T00:11:12;9.75;;;5.25;;
42846;SDS011;28495;49.916;14.536;2023-02-28T00:16:35;9.98;;;5.32;;
42846;SDS011;28495;49.916;14.536;2023-02-28T00:21:55;10.15;;;4.57;;
42846;SDS011;28495;49.916;14.536;2023-02-28T00:27:16;7.72;;;5.30;;
42846;SDS011;28495;49.916;14.536;2023-02-28T00:32:39;8.90;;;5.65;;
42846;SDS011;28495;49.916;14.536;2023-02-28T00:38:00;8.65;;;4.82;;
42846;SDS011;28495;49.916;14.536;2023-02-28T00:43:22;7.05;;;4.82;;
42846;SDS011;28495;49.916;14.536;2023-02-28T00:48:42;9.52;;;5.32;;
42846;SDS011;28495;49.916;14.536;2023-02-28T00:54:03;9.63;;;5.15;;
42846;SDS011;28495;49.916;14.536;2023-02-28T00:59:24;8.15;;;4.53;;
42846;SDS011;28495;49.916;14.536;2023-02-28T01:04:46;8.77;;;4.70;;
42846;SDS011;28495;49.916;14.536;2023-02-28T01:10:08;7.68;;;4.88;;
42846;SDS011;28495;49.916;14.536;2023-02-28T01:15:29;8.20;;;4.85;;
42846;SDS011;28495;49.916;14.536;2023-02-28T01:20:52;7.97;;;4.82;;
42846;SDS011;28495;49.916;14.536;2023-02-28T01:26:17;6.70;;;4.93;;
42846;SDS011;28495;49.916;14.536;2023-02-28T01:31:42;9.67;;;5.33;;
42846;SDS011;28495;49.916;14.536;2023-02-28T01:37:03;8.05;;;4.40;;
42846;SDS011;28495;49.916;14.536;2023-02-28T01:42:25;10.00;;;5.88;;
42846;SDS011;28495;49.916;14.536;2023-02-28T01:47:45;7.82;;;3.85;;
42846;SDS011;28495;49.916;14.536;2023-02-28T01:53:13;10.80;;;6.15;;
42846;SDS011;28495;49.916;14.536;2023-02-28T01:58:38;8.13;;;4.88;;
42846;SDS011;28495;49.916;14.536;2023-02-28T02:04:01;10.73;;;5.45;;
42846;SDS011;28495;49.916;14.536;2023-02-28T02:09:23;12.63;;;6.35;;
42846;SDS011;28495;49.916;14.536;2023-02-28T02:26:47;12.07;;;6.10;;
42846;SDS011;28495;49.916;14.536;2023-02-28T02:43:24;8.82;;;5.13;;
42846;SDS011;28495;49.916;14.536;2023-02-28T02:48:51;10.32;;;5.10;;
42846;SDS011;28495;49.916;14.536;2023-02-28T02:54:17;9.77;;;5.65;;
42846;SDS011;28495;49.916;14.536;2023-02-28T02:59:43;11.45;;;6.00;;
42846;SDS011;28495;49.916;14.536;2023-02-28T03:05:06;8.52;;;5.15;;
42846;SDS011;28495;49.916;14.536;2023-02-28T03:10:38;12.55;;;5.60;;
42846;SDS011;28495;49.916;14.536;2023-02-28T03:27:31;13.50;;;6.32;;
42846;SDS011;28495;49.916;14.536;2023-02-28T03:33:03;9.50;;;5.25;;
42846;SDS011;28495;49.916;14.536;2023-02-28T03:38:33;10.48;;;5.88;;
42846;SDS011;28495;49.916;14.536;2023-02-28T03:44:03;14.70;;;7.40;;
42846;SDS011;28495;49.916;14.536;2023-02-28T03:49:38;9.50;;;4.55;;
42846;SDS011;28495;49.916;14.536;2023-02-28T03:55:20;11.05;;;6.35;;
42846;SDS011;28495;49.916;14.536;2023-02-28T04:00:46;10.13;;;5.90;;
42846;SDS011;28495;49.916;14.536;2023-02-28T04:06:15;9.95;;;5.45;;
42846;SDS011;28495;49.916;14.536;2023-02-28T04:11:42;13.20;;;6.55;;
42846;SDS011;28495;49.916;14.536;2023-02-28T04:17:06;9.30;;;5.55;;
42846;SDS011;28495;49.916;14.536;2023-02-28T04:22:27;12.23;;;6.60;;
42846;SDS011;28495;49.916;14.536;2023-02-28T04:27:49;11.95;;;6.53;;
42846;SDS011;28495;49.916;14.536;2023-02-28T04:33:10;11.68;;;6.68;;
42846;SDS011;28495;49.916;14.536;2023-02-28T04:38:35;8.32;;;4.75;;
42846;SDS011;28495;49.916;14.536;2023-02-28T04:43:57;10.70;;;5.85;;
42846;SDS011;28495;49.916;14.536;2023-02-28T04:49:18;8.98;;;5.20;;
42846;SDS011;28495;49.916;14.536;2023-02-28T04:54:39;12.70;;;6.05;;
42846;SDS011;28495;49.916;14.536;2023-02-28T05:00:00;11.75;;;5.68;;
42846;SDS011;28495;49.916;14.536;2023-02-28T05:05:21;9.90;;;5.20;;
42846;SDS011;28495;49.916;14.536;2023-02-28T05:10:42;11.32;;;6.03;;
42846;SDS011;28495;49.916;14.536;2023-02-28T05:16:03;11.43;;;5.90;;
42846;SDS011;28495;49.916;14.536;2023-02-28T05:22:10;11.48;;;6.57;;
42846;SDS011;28495;49.916;14.536;2023-02-28T05:27:12;11.65;;;6.07;;
42846;SDS011;28495;49.916;14.536;2023-02-28T05:32:33;13.25;;;6.63;;
42846;SDS011;28495;49.916;14.536;2023-02-28T05:37:54;10.40;;;6.10;;
42846;SDS011;28495;49.916;14.536;2023-02-28T05:43:15;16.25;;;8.00;;
42846;SDS011;28495;49.916;14.536;2023-02-28T05:48:36;18.55;;;8.68;;
42846;SDS011;28495;49.916;14.536;2023-02-28T05:53:59;34.10;;;15.23;;
42846;SDS011;28495;49.916;14.536;2023-02-28T05:59:21;15.50;;;8.82;;
42846;SDS011;28495;49.916;14.536;2023-02-28T06:04:42;13.65;;;6.95;;
42846;SDS011;28495;49.916;14.536;2023-02-28T06:10:03;14.52;;;7.53;;
42846;SDS011;28495;49.916;14.536;2023-02-28T06:15:24;16.25;;;8.32;;
42846;SDS011;28495;49.916;14.536;2023-02-28T06:20:52;19.65;;;9.13;;
42846;SDS011;28495;49.916;14.536;2023-02-28T06:26:14;14.10;;;7.37;;
42846;SDS011;28495;49.916;14.536;2023-02-28T06:31:35;10.85;;;5.70;;
42846;SDS011;28495;49.916;14.536;2023-02-28T06:36:56;11.93;;;6.63;;
42846;SDS011;28495;49.916;14.536;2023-02-28T06:42:17;13.77;;;6.13;;
42846;SDS011;28495;49.916;14.536;2023-02-28T06:47:38;12.63;;;7.00;;
42846;SDS011;28495;49.916;14.536;2023-02-28T06:53:01;13.98;;;6.60;;
42846;SDS011;28495;49.916;14.536;2023-02-28T06:58:21;11.73;;;5.35;;
42846;SDS011;28495;49.916;14.536;2023-02-28T07:03:43;9.05;;;5.82;;
42846;SDS011;28495;49.916;14.536;2023-02-28T07:09:03;16.17;;;7.55;;
42846;SDS011;28495;49.916;14.536;2023-02-28T07:14:24;12.63;;;7.13;;
42846;SDS011;28495;49.916;14.536;2023-02-28T07:19:45;9.35;;;4.57;;
42846;SDS011;28495;49.916;14.536;2023-02-28T07:25:06;17.55;;;6.25;;
42846;SDS011;28495;49.916;14.536;2023-02-28T07:30:27;11.52;;;5.50;;
42846;SDS011;28495;49.916;14.536;2023-02-28T07:35:48;9.07;;;5.03;;
42846;SDS011;28495;49.916;14.536;2023-02-28T07:41:09;10.57;;;5.32;;
42846;SDS011;28495;49.916;14.536;2023-02-28T07:46:30;6.93;;;4.78;;
42846;SDS011;28495;49.916;14.536;2023-02-28T07:51:56;8.68;;;5.15;;
42846;SDS011;28495;49.916;14.536;2023-02-28T07:57:17;10.43;;;4.80;;
42846;SDS011;28495;49.916;14.536;2023-02-28T08:02:38;9.55;;;4.80;;
42846;SDS011;28495;49.916;14.536;2023-02-28T08:07:59;7.97;;;4.20;;
42846;SDS011;28495;49.916;14.536;2023-02-28T08:13:20;7.63;;;4.18;;
42846;SDS011;28495;49.916;14.536;2023-02-28T08:18:41;8.80;;;4.28;;
42846;SDS011;28495;49.916;14.536;2023-02-28T08:24:01;5.45;;;3.65;;
42846;SDS011;28495;49.916;14.536;2023-02-28T08:29:22;6.72;;;4.10;;
42846;SDS011;28495;49.916;14.536;2023-02-28T08:34:43;6.60;;;3.88;;
42846;SDS011;28495;49.916;14.536;2023-02-28T08:40:07;7.65;;;4.70;;
42846;SDS011;28495;49.916;14.536;2023-02-28T08:45:29;5.50;;;4.13;;
42846;SDS011;28495;49.916;14.536;2023-02-28T08:51:00;8.43;;;4.30;;
42846;SDS011;28495;49.916;14.536;2023-02-28T08:56:28;10.32;;;5.35;;
42846;SDS011;28495;49.916;14.536;2023-02-28T09:01:49;6.93;;;3.25;;
42846;SDS011;28495;49.916;14.536;2023-02-28T09:07:10;7.20;;;4.45;;
42846;SDS011;28495;49.916;14.536;2023-02-28T09:12:32;8.00;;;4.93;;
42846;SDS011;28495;49.916;14.536;2023-02-28T09:17:55;9.10;;;5.20;;
42846;SDS011;28495;49.916;14.536;2023-02-28T09:23:16;9.38;;;5.45;;
42846;SDS011;28495;49.916;14.536;2023-02-28T09:28:37;9.63;;;6.05;;
42846;SDS011;28495;49.916;14.536;2023-02-28T09:33:58;8.85;;;4.18;;
42846;SDS011;28495;49.916;14.536;2023-02-28T09:39:20;13.65;;;5.00;;
42846;SDS011;28495;49.916;14.536;2023-02-28T09:44:43;9.80;;;4.80;;
42846;SDS011;28495;49.916;14.536;2023-02-28T09:50:18;8.50;;;5.43;;
42846;SDS011;28495;49.916;14.536;2023-02-28T09:55:45;11.63;;;6.40;;
42846;SDS011;28495;49.916;14.536;2023-02-28T10:01:21;13.13;;;6.07;;
42846;SDS011;28495;49.916;14.536;2023-02-28T10:06:50;19.48;;;7.53;;
42846;SDS011;28495;49.916;14.536;2023-02-28T10:12:13;12.90;;;6.30;;
42846;SDS011;28495;49.916;14.536;2023-02-28T10:17:40;11.00;;;6.53;;
42846;SDS011;28495;49.916;14.536;2023-02-28T10:23:31;12.45;;;6.75;;
42846;SDS011;28495;49.916;14.536;2023-02-28T10:28:55;13.75;;;6.53;;
42846;SDS011;28495;49.916;14.536;2023-02-28T10:34:16;9.07;;;5.90;;
42846;SDS011;28495;49.916;14.536;2023-02-28T10:39:38;11.80;;;6.32;;
42846;SDS011;28495;49.916;14.536;2023-02-28T10:50:37;20.50;;;8.98;;
42846;SDS011;28495;49.916;14.536;2023-02-28T11:06:56;11.18;;;7.05;;
42846;SDS011;28495;49.916;14.536;2023-02-28T11:17:40;15.27;;;6.50;;
42846;SDS011;28495;49.916;14.536;2023-02-28T11:23:02;8.75;;;5.20;;
42846;SDS011;28495;49.916;14.536;2023-02-28T11:28:35;14.02;;;6.40;;
42846;SDS011;28495;49.916;14.536;2023-02-28T11:33:58;9.70;;;5.70;;
42846;SDS011;28495;49.916;14.536;2023-02-28T11:39:19;7.75;;;5.05;;
42846;SDS011;28495;49.916;14.536;2023-02-28T11:55:57;11.82;;;5.82;;
42846;SDS011;28495;49.916;14.536;2023-02-28T12:13:08;13.98;;;5.90;;
42846;SDS011;28495;49.916;14.536;2023-02-28T12:30:34;10.55;;;5.47;;
42846;SDS011;28495;49.916;14.536;2023-02-28T12:35:58;10.10;;;6.78;;
42846;SDS011;28495;49.916;14.536;2023-02-28T12:41:27;11.63;;;6.22;;
42846;SDS011;28495;49.916;14.536;2023-02-28T12:46:56;10.75;;;6.18;;
42846;SDS011;28495;49.916;14.536;2023-02-28T12:52:23;9.77;;;5.90;;
42846;SDS011;28495;49.916;14.536;2023-02-28T13:09:21;12.00;;;6.07;;
42846;SDS011;28495;49.916;14.536;2023-02-28T13:14:42;9.70;;;5.88;;
42846;SDS011;28495;49.916;14.536;2023-02-28T13:20:03;12.90;;;6.60;;
42846;SDS011;28495;49.916;14.536;2023-02-28T13:41:46;11.93;;;6.30;;
42846;SDS011;28495;49.916;14.536;2023-02-28T13:47:21;10.02;;;5.60;;
42846;SDS011;28495;49.916;14.536;2023-02-28T13:52:46;9.57;;;6.25;;
42846;SDS011;28495;49.916;14.536;2023-02-28T14:10:06;12.77;;;6.82;;
42846;SDS011;28495;49.916;14.536;2023-02-28T14:21:14;11.75;;;7.13;;
42846;SDS011;28495;49.916;14.536;2023-02-28T14:26:56;13.68;;;7.65;;
42846;SDS011;28495;49.916;14.536;2023-02-28T14:37:46;13.43;;;7.50;;
42846;SDS011;28495;49.916;14.536;2023-02-28T14:43:20;12.02;;;6.78;;
42846;SDS011;28495;49.916;14.536;2023-02-28T14:48:47;13.13;;;7.50;;
42846;SDS011;28495;49.916;14.536;2023-02-28T14:54:13;10.07;;;5.55;;
42846;SDS011;28495;49.916;14.536;2023-02-28T14:59:36;10.77;;;6.55;;
42846;SDS011;28495;49.916;14.536;2023-02-28T15:05:01;11.55;;;8.00;;
42846;SDS011;28495;49.916;14.536;2023-02-28T15:10:30;13.43;;;7.18;;
42846;SDS011;28495;49.916;14.536;2023-02-28T15:21:30;11.98;;;7.07;;
42846;SDS011;28495;49.916;14.536;2023-02-28T15:26:54;10.82;;;6.40;;
42846;SDS011;28495;49.916;14.536;2023-02-28T15:32:24;12.60;;;7.22;;
42846;SDS011;28495;49.916;14.536;2023-02-28T15:37:47;6.30;;;4.15;;
42846;SDS011;28495;49.916;14.536;2023-02-28T15:48:38;10.75;;;5.68;;
42846;SDS011;28495;49.916;14.536;2023-02-28T15:54:18;7.45;;;5.10;;
42846;SDS011;28495;49.916;14.536;2023-02-28T15:59:49;10.23;;;5.80;;
42846;SDS011;28495;49.916;14.536;2023-02-28T16:05:21;9.68;;;5.35;;
42846;SDS011;28495;49.916;14.536;2023-02-28T16:10:48;9.27;;;5.78;;
42846;SDS011;28495;49.916;14.536;2023-02-28T16:16:19;7.78;;;5.15;;
42846;SDS011;28495;49.916;14.536;2023-02-28T16:21:43;10.45;;;5.88;;
42846;SDS011;28495;49.916;14.536;2023-02-28T16:27:05;10.00;;;4.90;;
42846;SDS011;28495;49.916;14.536;2023-02-28T16:32:27;10.38;;;5.50;;
42846;SDS011;28495;49.916;14.536;2023-02-28T16:37:48;13.50;;;7.10;;
42846;SDS011;28495;49.916;14.536;2023-02-28T16:43:15;11.90;;;6.05;;
42846;SDS011;28495;49.916;14.536;2023-02-28T16:48:39;11.98;;;7.10;;
42846;SDS011;28495;49.916;14.536;2023-02-28T16:54:03;14.93;;;7.50;;
42846;SDS011;28495;49.916;14.536;2023-02-28T16:59:25;16.60;;;8.57;;
42846;SDS011;28495;49.916;14.536;2023-02-28T17:04:47;16.55;;;8.48;;
42846;SDS011;28495;49.916;14.536;2023-02-28T17:10:18;16.38;;;8.45;;
42846;SDS011;28495;49.916;14.536;2023-02-28T17:15:44;14.70;;;8.63;;
42846;SDS011;28495;49.916;14.536;2023-02-28T17:21:14;11.70;;;6.78;;
42846;SDS011;28495;49.916;14.536;2023-02-28T17:26:36;13.83;;;8.47;;
42846;SDS011;28495;49.916;14.536;2023-02-28T17:31:57;22.38;;;11.30;;
42846;SDS011;28495;49.916;14.536;2023-02-28T17:37:28;17.75;;;8.13;;
42846;SDS011;28495;49.916;14.536;2023-02-28T17:42:49;16.80;;;9.15;;
42846;SDS011;28495;49.916;14.536;2023-02-28T17:48:12;15.15;;;7.97;;
42846;SDS011;28495;49.916;14.536;2023-02-28T17:53:34;14.50;;;7.57;;
42846;SDS011;28495;49.916;14.536;2023-02-28T17:58:55;12.98;;;8.07;;
42846;SDS011;28495;49.916;14.536;2023-02-28T18:04:16;12.02;;;7.60;;
42846;SDS011;28495;49.916;14.536;2023-02-28T18:09:37;12.57;;;7.45;;
42846;SDS011;28495;49.916;14.536;2023-02-28T18:14:58;16.13;;;8.05;;
42846;SDS011;28495;49.916;14.536;2023-02-28T18:20:19;11.80;;;7.32;;
42846;SDS011;28495;49.916;14.536;2023-02-28T18:25:41;13.20;;;6.75;;
42846;SDS011;28495;49.916;14.536;2023-02-28T18:31:06;14.45;;;7.93;;
42846;SDS011;28495;49.916;14.536;2023-02-28T18:36:27;15.05;;;8.02;;
42846;SDS011;28495;49.916;14.536;2023-02-28T18:41:49;16.20;;;8.00;;
42846;SDS011;28495;49.916;14.536;2023-02-28T18:47:09;16.50;;;9.07;;
42846;SDS011;28495;49.916;14.536;2023-02-28T18:52:30;19.17;;;10.73;;
42846;SDS011;28495;49.916;14.536;2023-02-28T18:57:51;22.73;;;11.60;;
42846;SDS011;28495;49.916;14.536;2023-02-28T19:03:12;20.40;;;12.32;;
42846;SDS011;28495;49.916;14.536;2023-02-28T19:08:33;19.35;;;11.00;;
42846;SDS011;28495;49.916;14.536;2023-02-28T19:13:54;26.75;;;16.92;;
42846;SDS011;28495;49.916;14.536;2023-02-28T19:19:15;20.88;;;11.57;;
42846;SDS011;28495;49.916;14.536;2023-02-28T19:24:36;21.70;;;11.63;;
42846;SDS011;28495;49.916;14.536;2023-02-28T19:29:57;12.07;;;6.72;;
42846;SDS011;28495;49.916;14.536;2023-02-28T19:35:18;17.23;;;9.98;;
42846;SDS011;28495;49.916;14.536;2023-02-28T19:40:39;19.58;;;9.73;;
42846;SDS011;28495;49.916;14.536;2023-02-28T19:46:01;16.92;;;9.63;;
42846;SDS011;28495;49.916;14.536;2023-02-28T19:51:22;28.17;;;15.73;;
42846;SDS011;28495;49.916;14.536;2023-02-28T19:56:43;29.20;;;14.93;;
42846;SDS011;28495;49.916;14.536;2023-02-28T20:02:05;19.08;;;11.70;;
42846;SDS011;28495;49.916;14.536;2023-02-28T20:07:44;18.37;;;10.67;;
42846;SDS011;28495;49.916;14.536;2023-02-28T20:13:04;16.25;;;9.55;;
42846;SDS011;28495;49.916;14.536;2023-02-28T20:18:25;20.02;;;11.32;;
42846;SDS011;28495;49.916;14.536;2023-02-28T20:23:46;25.27;;;13.38;;
42846;SDS011;28495;49.916;14.536;2023-02-28T20:29:08;23.60;;;12.13;;
42846;SDS011;28495;49.916;14.536;2023-02-28T20:34:28;59.40;;;24.75;;
42846;SDS011;28495;49.916;14.536;2023-02-28T20:39:50;47.88;;;23.65;;
42846;SDS011;28495;49.916;14.536;2023-02-28T20:45:12;44.55;;;23.38;;
42846;SDS011;28495;49.916;14.536;2023-02-28T20:50:33;20.50;;;12.23;;
42846;SDS011;28495;49.916;14.536;2023-02-28T21:01:19;17.42;;;10.63;;
42846;SDS011;28495;49.916;14.536;2023-02-28T21:06:45;13.40;;;9.02;;
42846;SDS011;28495;49.916;14.536;2023-02-28T21:12:07;28.95;;;16.13;;
42846;SDS011;28495;49.916;14.536;2023-02-28T21:17:28;29.48;;;15.82;;
42846;SDS011;28495;49.916;14.536;2023-02-28T21:22:49;22.80;;;12.55;;
42846;SDS011;28495;49.916;14.536;2023-02-28T21:28:12;19.45;;;12.10;;
42846;SDS011;28495;49.916;14.536;2023-02-28T21:33:33;25.52;;;11.05;;
42846;SDS011;28495;49.916;14.536;2023-02-28T21:38:55;20.80;;;10.95;;
42846;SDS011;28495;49.916;14.536;2023-02-28T21:44:20;19.52;;;9.80;;
42846;SDS011;28495;49.916;14.536;2023-02-28T21:49:42;24.25;;;11.60;;
42846;SDS011;28495;49.916;14.536;2023-02-28T21:55:03;19.33;;;9.95;;
42846;SDS011;28495;49.916;14.536;2023-02-28T22:00:24;21.40;;;11.05;;
42846;SDS011;28495;49.916;14.536;2023-02-28T22:05:45;21.83;;;10.93;;
42846;SDS011;28495;49.916;14.536;2023-02-28T22:11:06;16.23;;;9.10;;
42846;SDS011;28495;49.916;14.536;2023-02-28T22:16:29;15.95;;;9.52;;
42846;SDS011;28495;49.916;14.536;2023-02-28T22:22:09;15.77;;;9.13;;
42846;SDS011;28495;49.916;14.536;2023-02-28T22:27:29;18.08;;;10.85;;
42846;SDS011;28495;49.916;14.536;2023-02-28T22:32:50;22.30;;;10.18;;
42846;SDS011;28495;49.916;14.536;2023-02-28T22:38:11;17.58;;;10.15;;
42846;SDS011;28495;49.916;14.536;2023-02-28T22:43:32;22.30;;;11.35;;
42846;SDS011;28495;49.916;14.536;2023-02-28T22:48:54;20.73;;;11.73;;
42846;SDS011;28495;49.916;14.536;2023-02-28T22:54:14;21.50;;;11.18;;
42846;SDS011;28495;49.916;14.536;2023-02-28T22:59:36;18.38;;;9.63;;
42846;SDS011;28495;49.916;14.536;2023-02-28T23:04:56;17.63;;;9.82;;
42846;SDS011;28495;49.916;14.536;2023-02-28T23:10:17;20.25;;;10.23;;
42846;SDS011;28495;49.916;14.536;2023-02-28T23:15:38;20.50;;;10.40;;
42846;SDS011;28495;49.916;14.536;2023-02-28T23:21:00;18.40;;;10.60;;
42846;SDS011;28495;49.916;14.536;2023-02-28T23:26:21;21.40;;;11.25;;
42846;SDS011;28495;49.916;14.536;2023-02-28T23:31:43;19.95;;;11.65;;
42846;SDS011;28495;49.916;14.536;2023-02-28T23:37:04;19.55;;;10.80;;
42846;SDS011;28495;49.916;14.536;2023-02-28T23:42:25;22.23;;;10.98;;
42846;SDS011;28495;49.916;14.536;2023-02-28T23:47:46;19.17;;;10.65;;
42846;SDS011;28495;49.916;14.536;2023-02-28T23:53:06;18.80;;;10.00;;
42846;SDS011;28495;49.916;14.536;2023-02-28T23:58:28;15.50;;;9.45;;
